sensor_id;sensor_type;location;lat;lon;timestamp;P1;durP1;ratioP1;P2;durP2;ratioP2
74168;SDS011;62523;53.336;83.690;2023-07-30T00:03:30;12.63;;;3.97;;
74168;SDS011;62523;53.336;83.690;2023-07-30T00:08:32;4.45;;;3.45;;
74168;SDS011;62523;53.336;83.690;2023-07-30T00:13:34;6.57;;;4.72;;
74168;SDS011;62523;53.336;83.690;2023-07-30T00:18:36;4.88;;;4.25;;
74168;SDS011;62523;53.336;83.690;2023-07-30T00:23:37;5.35;;;3.80;;
74168;SDS011;62523;53.336;83.690;2023-07-30T00:28:39;5.95;;;3.50;;
74168;SDS011;62523;53.336;83.690;2023-07-30T00:33:41;5.00;;;3.57;;
74168;SDS011;62523;53.336;83.690;2023-07-30T00:38:43;9.43;;;4.10;;
74168;SDS011;62523;53.336;83.690;2023-07-30T00:43:45;5.30;;;3.63;;
74168;SDS011;62523;53.336;83.690;2023-07-30T00:48:50;3.45;;;3.15;;
74168;SDS011;62523;53.336;83.690;2023-07-30T00:53:52;8.73;;;4.47;;
74168;SDS011;62523;53.336;83.690;2023-07-30T00:58:53;4.30;;;3.28;;
74168;SDS011;62523;53.336;83.690;2023-07-30T01:03:56;8.10;;;3.80;;
74168;SDS011;62523;53.336;83.690;2023-07-30T01:08:58;2.67;;;2.30;;
74168;SDS011;62523;53.336;83.690;2023-07-30T01:14:00;11.38;;;3.75;;
74168;SDS011;62523;53.336;83.690;2023-07-30T01:19:03;4.60;;;4.07;;
74168;SDS011;62523;53.336;83.690;2023-07-30T01:24:07;3.45;;;2.40;;
74168;SDS011;62523;53.336;83.690;2023-07-30T01:29:16;7.55;;;3.00;;
74168;SDS011;62523;53.336;83.690;2023-07-30T01:34:24;4.32;;;3.42;;
74168;SDS011;62523;53.336;83.690;2023-07-30T01:39:29;4.00;;;3.70;;
74168;SDS011;62523;53.336;83.690;2023-07-30T01:44:33;4.07;;;3.05;;
74168;SDS011;62523;53.336;83.690;2023-07-30T01:49:35;6.00;;;4.40;;
74168;SDS011;62523;53.336;83.690;2023-07-30T01:54:37;4.68;;;3.55;;
74168;SDS011;62523;53.336;83.690;2023-07-30T01:59:38;3.78;;;2.60;;
74168;SDS011;62523;53.336;83.690;2023-07-30T02:04:40;6.13;;;4.55;;
74168;SDS011;62523;53.336;83.690;2023-07-30T02:09:43;4.30;;;2.67;;
74168;SDS011;62523;53.336;83.690;2023-07-30T02:14:45;3.90;;;3.30;;
74168;SDS011;62523;53.336;83.690;2023-07-30T02:19:47;4.00;;;3.53;;
74168;SDS011;62523;53.336;83.690;2023-07-30T02:24:49;3.63;;;2.78;;
74168;SDS011;62523;53.336;83.690;2023-07-30T02:29:50;5.57;;;3.88;;
74168;SDS011;62523;53.336;83.690;2023-07-30T02:34:52;6.15;;;3.58;;
74168;SDS011;62523;53.336;83.690;2023-07-30T02:39:53;5.00;;;3.70;;
74168;SDS011;62523;53.336;83.690;2023-07-30T02:44:55;3.58;;;3.28;;
74168;SDS011;62523;53.336;83.690;2023-07-30T02:49:56;3.85;;;3.33;;
74168;SDS011;62523;53.336;83.690;2023-07-30T02:54:58;9.97;;;4.30;;
74168;SDS011;62523;53.336;83.690;2023-07-30T03:00:00;6.88;;;3.50;;
74168;SDS011;62523;53.336;83.690;2023-07-30T03:05:05;3.92;;;3.30;;
74168;SDS011;62523;53.336;83.690;2023-07-30T03:10:08;6.47;;;3.90;;
74168;SDS011;62523;53.336;83.690;2023-07-30T03:15:09;8.93;;;4.82;;
74168;SDS011;62523;53.336;83.690;2023-07-30T03:20:12;5.43;;;3.92;;
74168;SDS011;62523;53.336;83.690;2023-07-30T03:25:13;7.00;;;4.30;;
74168;SDS011;62523;53.336;83.690;2023-07-30T03:30:15;4.40;;;3.03;;
74168;SDS011;62523;53.336;83.690;2023-07-30T03:35:17;11.60;;;4.28;;
74168;SDS011;62523;53.336;83.690;2023-07-30T03:40:18;3.30;;;2.72;;
74168;SDS011;62523;53.336;83.690;2023-07-30T03:45:20;3.38;;;2.47;;
74168;SDS011;62523;53.336;83.690;2023-07-30T03:50:22;4.55;;;3.58;;
74168;SDS011;62523;53.336;83.690;2023-07-30T03:55:23;5.07;;;3.38;;
74168;SDS011;62523;53.336;83.690;2023-07-30T04:00:25;5.25;;;3.95;;
74168;SDS011;62523;53.336;83.690;2023-07-30T04:05:26;4.03;;;3.45;;
74168;SDS011;62523;53.336;83.690;2023-07-30T04:10:29;4.80;;;3.72;;
74168;SDS011;62523;53.336;83.690;2023-07-30T04:15:30;7.88;;;5.28;;
74168;SDS011;62523;53.336;83.690;2023-07-30T04:20:32;5.93;;;3.38;;
74168;SDS011;62523;53.336;83.690;2023-07-30T04:25:34;8.52;;;7.05;;
74168;SDS011;62523;53.336;83.690;2023-07-30T04:30:35;4.90;;;4.35;;
74168;SDS011;62523;53.336;83.690;2023-07-30T04:35:37;12.17;;;7.23;;
74168;SDS011;62523;53.336;83.690;2023-07-30T04:40:39;7.88;;;5.15;;
74168;SDS011;62523;53.336;83.690;2023-07-30T04:45:41;5.95;;;4.25;;
74168;SDS011;62523;53.336;83.690;2023-07-30T04:50:44;6.40;;;4.85;;
74168;SDS011;62523;53.336;83.690;2023-07-30T04:55:45;10.07;;;4.80;;
74168;SDS011;62523;53.336;83.690;2023-07-30T05:00:47;4.07;;;3.30;;
74168;SDS011;62523;53.336;83.690;2023-07-30T05:05:49;3.95;;;3.45;;
74168;SDS011;62523;53.336;83.690;2023-07-30T05:10:51;8.80;;;5.95;;
74168;SDS011;62523;53.336;83.690;2023-07-30T05:15:52;6.05;;;4.60;;
74168;SDS011;62523;53.336;83.690;2023-07-30T05:20:54;4.95;;;4.20;;
74168;SDS011;62523;53.336;83.690;2023-07-30T05:25:56;12.43;;;5.47;;
74168;SDS011;62523;53.336;83.690;2023-07-30T05:30:58;6.07;;;5.45;;
74168;SDS011;62523;53.336;83.690;2023-07-30T05:36:00;5.60;;;4.53;;
74168;SDS011;62523;53.336;83.690;2023-07-30T05:41:02;6.53;;;4.03;;
74168;SDS011;62523;53.336;83.690;2023-07-30T05:46:03;8.77;;;5.60;;
74168;SDS011;62523;53.336;83.690;2023-07-30T05:51:05;9.07;;;5.43;;
74168;SDS011;62523;53.336;83.690;2023-07-30T05:56:07;10.17;;;5.33;;
74168;SDS011;62523;53.336;83.690;2023-07-30T06:01:09;6.15;;;5.55;;
74168;SDS011;62523;53.336;83.690;2023-07-30T06:06:12;7.30;;;4.70;;
74168;SDS011;62523;53.336;83.690;2023-07-30T06:11:14;5.13;;;4.32;;
74168;SDS011;62523;53.336;83.690;2023-07-30T06:16:16;5.28;;;4.53;;
74168;SDS011;62523;53.336;83.690;2023-07-30T06:21:21;6.25;;;5.63;;
74168;SDS011;62523;53.336;83.690;2023-07-30T06:26:22;11.32;;;5.13;;
74168;SDS011;62523;53.336;83.690;2023-07-30T06:31:24;5.20;;;4.78;;
74168;SDS011;62523;53.336;83.690;2023-07-30T06:36:26;6.68;;;5.43;;
74168;SDS011;62523;53.336;83.690;2023-07-30T06:41:28;16.85;;;6.20;;
74168;SDS011;62523;53.336;83.690;2023-07-30T06:46:30;5.50;;;4.82;;
74168;SDS011;62523;53.336;83.690;2023-07-30T06:51:32;6.97;;;5.95;;
74168;SDS011;62523;53.336;83.690;2023-07-30T06:56:33;5.88;;;5.18;;
74168;SDS011;62523;53.336;83.690;2023-07-30T07:01:35;6.13;;;5.13;;
74168;SDS011;62523;53.336;83.690;2023-07-30T07:06:37;9.70;;;5.80;;
74168;SDS011;62523;53.336;83.690;2023-07-30T07:11:38;8.80;;;5.78;;
74168;SDS011;62523;53.336;83.690;2023-07-30T07:16:40;6.93;;;5.75;;
74168;SDS011;62523;53.336;83.690;2023-07-30T07:21:42;5.75;;;4.72;;
74168;SDS011;62523;53.336;83.690;2023-07-30T07:26:43;5.97;;;5.35;;
74168;SDS011;62523;53.336;83.690;2023-07-30T07:31:46;6.00;;;5.35;;
74168;SDS011;62523;53.336;83.690;2023-07-30T07:36:48;5.20;;;4.70;;
74168;SDS011;62523;53.336;83.690;2023-07-30T07:41:50;10.55;;;4.78;;
74168;SDS011;62523;53.336;83.690;2023-07-30T07:46:51;5.60;;;4.00;;
74168;SDS011;62523;53.336;83.690;2023-07-30T07:51:53;6.03;;;5.32;;
74168;SDS011;62523;53.336;83.690;2023-07-30T07:56:55;7.70;;;4.87;;
74168;SDS011;62523;53.336;83.690;2023-07-30T08:01:57;6.35;;;5.72;;
74168;SDS011;62523;53.336;83.690;2023-07-30T08:06:58;6.95;;;4.57;;
74168;SDS011;62523;53.336;83.690;2023-07-30T08:12:04;10.18;;;4.22;;
74168;SDS011;62523;53.336;83.690;2023-07-30T08:17:06;5.77;;;5.17;;
74168;SDS011;62523;53.336;83.690;2023-07-30T08:22:08;8.97;;;4.17;;
74168;SDS011;62523;53.336;83.690;2023-07-30T08:27:09;4.15;;;3.67;;
74168;SDS011;62523;53.336;83.690;2023-07-30T08:32:11;12.45;;;7.82;;
74168;SDS011;62523;53.336;83.690;2023-07-30T08:37:12;5.88;;;4.55;;
74168;SDS011;62523;53.336;83.690;2023-07-30T08:42:14;6.18;;;4.53;;
74168;SDS011;62523;53.336;83.690;2023-07-30T08:47:16;4.97;;;4.43;;
74168;SDS011;62523;53.336;83.690;2023-07-30T08:52:18;15.40;;;5.95;;
74168;SDS011;62523;53.336;83.690;2023-07-30T08:57:22;6.60;;;4.90;;
74168;SDS011;62523;53.336;83.690;2023-07-30T09:02:26;10.93;;;5.60;;
74168;SDS011;62523;53.336;83.690;2023-07-30T09:07:45;12.70;;;5.00;;
74168;SDS011;62523;53.336;83.690;2023-07-30T09:12:51;9.63;;;4.55;;
74168;SDS011;62523;53.336;83.690;2023-07-30T09:18:01;6.38;;;5.10;;
74168;SDS011;62523;53.336;83.690;2023-07-30T09:23:04;6.87;;;3.93;;
74168;SDS011;62523;53.336;83.690;2023-07-30T09:28:08;15.65;;;5.45;;
74168;SDS011;62523;53.336;83.690;2023-07-30T09:33:11;9.93;;;5.03;;
74168;SDS011;62523;53.336;83.690;2023-07-30T09:38:22;7.60;;;3.75;;
74168;SDS011;62523;53.336;83.690;2023-07-30T09:43:27;4.43;;;3.92;;
74168;SDS011;62523;53.336;83.690;2023-07-30T09:48:33;7.43;;;4.90;;
74168;SDS011;62523;53.336;83.690;2023-07-30T09:53:36;5.20;;;4.20;;
74168;SDS011;62523;53.336;83.690;2023-07-30T09:58:37;6.50;;;4.05;;
74168;SDS011;62523;53.336;83.690;2023-07-30T10:03:39;11.18;;;4.55;;
74168;SDS011;62523;53.336;83.690;2023-07-30T10:08:41;9.07;;;4.57;;
74168;SDS011;62523;53.336;83.690;2023-07-30T10:13:45;6.05;;;4.18;;
74168;SDS011;62523;53.336;83.690;2023-07-30T10:18:47;6.68;;;4.68;;
74168;SDS011;62523;53.336;83.690;2023-07-30T10:23:59;7.30;;;4.37;;
74168;SDS011;62523;53.336;83.690;2023-07-30T10:29:18;10.80;;;3.47;;
74168;SDS011;62523;53.336;83.690;2023-07-30T10:34:21;5.73;;;4.53;;
74168;SDS011;62523;53.336;83.690;2023-07-30T10:39:27;7.05;;;3.72;;
74168;SDS011;62523;53.336;83.690;2023-07-30T10:44:33;3.55;;;2.90;;
74168;SDS011;62523;53.336;83.690;2023-07-30T10:49:36;4.50;;;3.40;;
74168;SDS011;62523;53.336;83.690;2023-07-30T10:54:49;3.40;;;3.10;;
74168;SDS011;62523;53.336;83.690;2023-07-30T11:00:00;4.90;;;3.88;;
74168;SDS011;62523;53.336;83.690;2023-07-30T11:05:11;5.25;;;3.30;;
74168;SDS011;62523;53.336;83.690;2023-07-30T11:10:15;4.70;;;3.43;;
74168;SDS011;62523;53.336;83.690;2023-07-30T11:15:16;4.97;;;3.10;;
74168;SDS011;62523;53.336;83.690;2023-07-30T11:20:24;6.20;;;4.25;;
74168;SDS011;62523;53.336;83.690;2023-07-30T11:25:29;4.65;;;3.47;;
74168;SDS011;62523;53.336;83.690;2023-07-30T11:30:31;7.03;;;3.45;;
74168;SDS011;62523;53.336;83.690;2023-07-30T11:35:33;4.05;;;2.90;;
74168;SDS011;62523;53.336;83.690;2023-07-30T11:40:35;6.63;;;4.13;;
74168;SDS011;62523;53.336;83.690;2023-07-30T11:45:37;5.60;;;3.20;;
74168;SDS011;62523;53.336;83.690;2023-07-30T11:50:42;5.63;;;3.75;;
74168;SDS011;62523;53.336;83.690;2023-07-30T11:55:44;4.35;;;3.47;;
74168;SDS011;62523;53.336;83.690;2023-07-30T12:00:46;6.32;;;4.10;;
74168;SDS011;62523;53.336;83.690;2023-07-30T12:05:48;2.55;;;2.35;;
74168;SDS011;62523;53.336;83.690;2023-07-30T12:10:51;9.50;;;4.20;;
74168;SDS011;62523;53.336;83.690;2023-07-30T12:15:54;4.07;;;3.42;;
74168;SDS011;62523;53.336;83.690;2023-07-30T12:20:57;5.03;;;2.73;;
74168;SDS011;62523;53.336;83.690;2023-07-30T12:25:59;5.50;;;2.55;;
74168;SDS011;62523;53.336;83.690;2023-07-30T12:31:01;5.55;;;4.13;;
74168;SDS011;62523;53.336;83.690;2023-07-30T12:36:03;17.38;;;4.30;;
74168;SDS011;62523;53.336;83.690;2023-07-30T12:41:05;9.82;;;2.90;;
74168;SDS011;62523;53.336;83.690;2023-07-30T12:46:07;10.98;;;3.85;;
74168;SDS011;62523;53.336;83.690;2023-07-30T12:51:09;3.10;;;2.42;;
74168;SDS011;62523;53.336;83.690;2023-07-30T12:56:11;4.55;;;3.47;;
74168;SDS011;62523;53.336;83.690;2023-07-30T13:01:13;4.38;;;3.60;;
74168;SDS011;62523;53.336;83.690;2023-07-30T13:06:15;3.80;;;2.57;;
74168;SDS011;62523;53.336;83.690;2023-07-30T13:11:17;2.63;;;2.42;;
74168;SDS011;62523;53.336;83.690;2023-07-30T13:16:19;3.58;;;2.47;;
74168;SDS011;62523;53.336;83.690;2023-07-30T13:21:21;4.00;;;2.97;;
74168;SDS011;62523;53.336;83.690;2023-07-30T13:26:23;6.43;;;4.07;;
74168;SDS011;62523;53.336;83.690;2023-07-30T13:31:24;2.70;;;2.30;;
74168;SDS011;62523;53.336;83.690;2023-07-30T13:36:26;8.63;;;3.67;;
74168;SDS011;62523;53.336;83.690;2023-07-30T13:41:28;3.75;;;3.42;;
74168;SDS011;62523;53.336;83.690;2023-07-30T13:46:30;19.70;;;4.07;;
74168;SDS011;62523;53.336;83.690;2023-07-30T13:51:32;2.83;;;2.22;;
74168;SDS011;62523;53.336;83.690;2023-07-30T13:56:34;20.27;;;3.65;;
74168;SDS011;62523;53.336;83.690;2023-07-30T14:01:36;6.53;;;3.60;;
74168;SDS011;62523;53.336;83.690;2023-07-30T14:06:38;7.60;;;4.35;;
74168;SDS011;62523;53.336;83.690;2023-07-30T14:11:40;8.65;;;4.57;;
74168;SDS011;62523;53.336;83.690;2023-07-30T14:16:45;4.07;;;3.20;;
74168;SDS011;62523;53.336;83.690;2023-07-30T14:21:47;6.65;;;4.55;;
74168;SDS011;62523;53.336;83.690;2023-07-30T14:26:49;11.68;;;4.93;;
74168;SDS011;62523;53.336;83.690;2023-07-30T14:31:51;10.10;;;4.72;;
74168;SDS011;62523;53.336;83.690;2023-07-30T14:36:53;8.15;;;3.97;;
74168;SDS011;62523;53.336;83.690;2023-07-30T14:41:54;7.17;;;4.67;;
74168;SDS011;62523;53.336;83.690;2023-07-30T14:46:56;6.63;;;4.38;;
74168;SDS011;62523;53.336;83.690;2023-07-30T14:51:59;6.60;;;3.92;;
74168;SDS011;62523;53.336;83.690;2023-07-30T14:57:01;10.68;;;3.55;;
74168;SDS011;62523;53.336;83.690;2023-07-30T15:02:02;4.28;;;3.67;;
74168;SDS011;62523;53.336;83.690;2023-07-30T15:07:04;5.00;;;3.60;;
74168;SDS011;62523;53.336;83.690;2023-07-30T15:12:06;4.75;;;3.15;;
74168;SDS011;62523;53.336;83.690;2023-07-30T15:17:09;3.88;;;3.35;;
74168;SDS011;62523;53.336;83.690;2023-07-30T15:22:11;3.50;;;2.50;;
74168;SDS011;62523;53.336;83.690;2023-07-30T15:27:14;4.10;;;3.47;;
74168;SDS011;62523;53.336;83.690;2023-07-30T15:32:15;4.07;;;3.40;;
74168;SDS011;62523;53.336;83.690;2023-07-30T15:37:17;6.38;;;3.50;;
74168;SDS011;62523;53.336;83.690;2023-07-30T15:42:19;4.65;;;2.80;;
74168;SDS011;62523;53.336;83.690;2023-07-30T15:47:20;10.32;;;3.58;;
74168;SDS011;62523;53.336;83.690;2023-07-30T15:52:21;4.47;;;3.43;;
74168;SDS011;62523;53.336;83.690;2023-07-30T15:57:23;3.78;;;3.38;;
74168;SDS011;62523;53.336;83.690;2023-07-30T16:02:24;7.15;;;3.45;;
74168;SDS011;62523;53.336;83.690;2023-07-30T16:07:26;4.00;;;3.60;;
74168;SDS011;62523;53.336;83.690;2023-07-30T16:12:28;4.03;;;3.63;;
74168;SDS011;62523;53.336;83.690;2023-07-30T16:17:30;6.50;;;3.40;;
74168;SDS011;62523;53.336;83.690;2023-07-30T16:22:31;6.00;;;3.60;;
74168;SDS011;62523;53.336;83.690;2023-07-30T16:27:32;3.97;;;3.47;;
74168;SDS011;62523;53.336;83.690;2023-07-30T16:32:34;7.35;;;3.15;;
74168;SDS011;62523;53.336;83.690;2023-07-30T16:37:36;3.20;;;2.90;;
74168;SDS011;62523;53.336;83.690;2023-07-30T16:42:37;4.13;;;2.95;;
74168;SDS011;62523;53.336;83.690;2023-07-30T16:47:39;2.97;;;2.67;;
74168;SDS011;62523;53.336;83.690;2023-07-30T16:52:40;6.70;;;3.10;;
74168;SDS011;62523;53.336;83.690;2023-07-30T16:57:42;4.40;;;3.07;;
74168;SDS011;62523;53.336;83.690;2023-07-30T17:02:44;9.98;;;4.93;;
74168;SDS011;62523;53.336;83.690;2023-07-30T17:07:46;5.45;;;2.08;;
74168;SDS011;62523;53.336;83.690;2023-07-30T17:12:57;2.74;;;2.26;;
74168;SDS011;62523;53.336;83.690;2023-07-30T17:17:59;1.52;;;1.42;;
74168;SDS011;62523;53.336;83.690;2023-07-30T17:23:01;4.17;;;3.71;;
74168;SDS011;62523;53.336;83.690;2023-07-30T17:28:03;4.93;;;2.80;;
74168;SDS011;62523;53.336;83.690;2023-07-30T17:33:05;6.57;;;2.97;;
74168;SDS011;62523;53.336;83.690;2023-07-30T17:38:07;4.73;;;3.17;;
74168;SDS011;62523;53.336;83.690;2023-07-30T17:43:09;4.85;;;3.63;;
74168;SDS011;62523;53.336;83.690;2023-07-30T17:48:11;7.15;;;2.75;;
74168;SDS011;62523;53.336;83.690;2023-07-30T17:53:12;3.08;;;2.60;;
74168;SDS011;62523;53.336;83.690;2023-07-30T17:58:14;6.18;;;2.80;;
74168;SDS011;62523;53.336;83.690;2023-07-30T18:03:16;2.58;;;2.38;;
74168;SDS011;62523;53.336;83.690;2023-07-30T18:08:18;3.13;;;2.47;;
74168;SDS011;62523;53.336;83.690;2023-07-30T18:13:20;7.03;;;3.83;;
74168;SDS011;62523;53.336;83.690;2023-07-30T18:18:24;12.43;;;8.05;;
74168;SDS011;62523;53.336;83.690;2023-07-30T18:23:26;10.68;;;6.82;;
74168;SDS011;62523;53.336;83.690;2023-07-30T18:28:28;9.45;;;6.63;;
74168;SDS011;62523;53.336;83.690;2023-07-30T18:33:30;7.68;;;6.47;;
74168;SDS011;62523;53.336;83.690;2023-07-30T18:38:32;10.65;;;6.32;;
74168;SDS011;62523;53.336;83.690;2023-07-30T18:43:34;9.20;;;6.78;;
74168;SDS011;62523;53.336;83.690;2023-07-30T18:48:36;9.07;;;7.30;;
74168;SDS011;62523;53.336;83.690;2023-07-30T18:53:38;10.13;;;7.13;;
74168;SDS011;62523;53.336;83.690;2023-07-30T18:58:40;8.23;;;7.43;;
74168;SDS011;62523;53.336;83.690;2023-07-30T19:03:41;9.80;;;6.30;;
74168;SDS011;62523;53.336;83.690;2023-07-30T19:08:43;7.30;;;6.45;;
74168;SDS011;62523;53.336;83.690;2023-07-30T19:13:45;10.48;;;6.30;;
74168;SDS011;62523;53.336;83.690;2023-07-30T19:18:47;9.70;;;8.07;;
74168;SDS011;62523;53.336;83.690;2023-07-30T19:23:49;8.17;;;6.63;;
74168;SDS011;62523;53.336;83.690;2023-07-30T19:28:51;8.07;;;6.97;;
74168;SDS011;62523;53.336;83.690;2023-07-30T19:34:04;18.83;;;8.02;;
74168;SDS011;62523;53.336;83.690;2023-07-30T19:39:08;15.65;;;5.40;;
74168;SDS011;62523;53.336;83.690;2023-07-30T19:44:10;6.93;;;6.22;;
74168;SDS011;62523;53.336;83.690;2023-07-30T19:49:12;9.15;;;5.38;;
74168;SDS011;62523;53.336;83.690;2023-07-30T19:54:14;10.70;;;4.95;;
74168;SDS011;62523;53.336;83.690;2023-07-30T19:59:15;6.63;;;4.72;;
74168;SDS011;62523;53.336;83.690;2023-07-30T20:04:17;6.57;;;5.43;;
74168;SDS011;62523;53.336;83.690;2023-07-30T20:09:18;7.78;;;5.25;;
74168;SDS011;62523;53.336;83.690;2023-07-30T20:14:21;8.32;;;5.68;;
74168;SDS011;62523;53.336;83.690;2023-07-30T20:19:22;12.95;;;4.93;;
74168;SDS011;62523;53.336;83.690;2023-07-30T20:24:24;5.93;;;5.32;;
74168;SDS011;62523;53.336;83.690;2023-07-30T20:29:28;8.88;;;5.90;;
74168;SDS011;62523;53.336;83.690;2023-07-30T20:34:30;7.15;;;6.10;;
74168;SDS011;62523;53.336;83.690;2023-07-30T20:39:32;14.10;;;9.55;;
74168;SDS011;62523;53.336;83.690;2023-07-30T20:44:34;20.73;;;11.10;;
74168;SDS011;62523;53.336;83.690;2023-07-30T20:49:36;13.93;;;9.73;;
74168;SDS011;62523;53.336;83.690;2023-07-30T20:54:39;13.50;;;10.90;;
74168;SDS011;62523;53.336;83.690;2023-07-30T20:59:40;12.65;;;10.18;;
74168;SDS011;62523;53.336;83.690;2023-07-30T21:04:42;13.80;;;11.38;;
74168;SDS011;62523;53.336;83.690;2023-07-30T21:09:44;16.17;;;9.48;;
74168;SDS011;62523;53.336;83.690;2023-07-30T21:14:46;12.05;;;10.48;;
74168;SDS011;62523;53.336;83.690;2023-07-30T21:19:48;14.40;;;9.50;;
74168;SDS011;62523;53.336;83.690;2023-07-30T21:24:50;10.60;;;7.85;;
74168;SDS011;62523;53.336;83.690;2023-07-30T21:29:52;8.95;;;6.20;;
74168;SDS011;62523;53.336;83.690;2023-07-30T21:34:54;9.57;;;5.60;;
74168;SDS011;62523;53.336;83.690;2023-07-30T21:39:59;12.77;;;7.20;;
74168;SDS011;62523;53.336;83.690;2023-07-30T21:45:01;17.60;;;8.20;;
74168;SDS011;62523;53.336;83.690;2023-07-30T21:50:04;14.07;;;8.27;;
74168;SDS011;62523;53.336;83.690;2023-07-30T21:55:06;10.80;;;6.57;;
74168;SDS011;62523;53.336;83.690;2023-07-30T22:00:08;18.00;;;8.35;;
74168;SDS011;62523;53.336;83.690;2023-07-30T22:05:11;14.17;;;5.80;;
74168;SDS011;62523;53.336;83.690;2023-07-30T22:10:12;10.40;;;6.43;;
74168;SDS011;62523;53.336;83.690;2023-07-30T22:15:15;7.72;;;5.70;;
74168;SDS011;62523;53.336;83.690;2023-07-30T22:20:17;10.43;;;6.93;;
74168;SDS011;62523;53.336;83.690;2023-07-30T22:25:19;13.67;;;6.77;;
74168;SDS011;62523;53.336;83.690;2023-07-30T22:30:21;9.73;;;6.10;;
74168;SDS011;62523;53.336;83.690;2023-07-30T22:35:23;7.75;;;5.47;;
74168;SDS011;62523;53.336;83.690;2023-07-30T22:40:26;9.68;;;5.03;;
74168;SDS011;62523;53.336;83.690;2023-07-30T22:45:29;8.30;;;5.03;;
74168;SDS011;62523;53.336;83.690;2023-07-30T22:50:31;5.40;;;4.60;;
74168;SDS011;62523;53.336;83.690;2023-07-30T22:55:33;7.30;;;4.05;;
74168;SDS011;62523;53.336;83.690;2023-07-30T23:00:34;5.03;;;4.32;;
74168;SDS011;62523;53.336;83.690;2023-07-30T23:05:37;6.47;;;4.43;;
74168;SDS011;62523;53.336;83.690;2023-07-30T23:10:39;10.30;;;4.15;;
74168;SDS011;62523;53.336;83.690;2023-07-30T23:15:41;12.20;;;5.60;;
74168;SDS011;62523;53.336;83.690;2023-07-30T23:20:43;5.17;;;4.17;;
74168;SDS011;62523;53.336;83.690;2023-07-30T23:25:45;5.82;;;4.70;;
74168;SDS011;62523;53.336;83.690;2023-07-30T23:30:47;6.80;;;5.35;;
74168;SDS011;62523;53.336;83.690;2023-07-30T23:35:49;10.43;;;6.03;;
74168;SDS011;62523;53.336;83.690;2023-07-30T23:40:51;6.40;;;5.47;;
74168;SDS011;62523;53.336;83.690;2023-07-30T23:45:52;12.63;;;5.03;;
74168;SDS011;62523;53.336;83.690;2023-07-30T23:50:54;10.18;;;6.22;;
74168;SDS011;62523;53.336;83.690;2023-07-30T23:55:55;8.13;;;6.18;;
